sensor_id;sensor_type;location;lat;lon;timestamp;P1;durP1;ratioP1;P2;durP2;ratioP2
74100;SDS011;62462;52.530;21.682;2023-08-31T12:58:19;1.67;;;1.30;;
74100;SDS011;62462;52.530;21.682;2023-08-31T13:00:46;1.75;;;1.33;;
74100;SDS011;62462;52.530;21.682;2023-08-31T13:03:14;3.13;;;1.20;;
74100;SDS011;62462;52.530;21.682;2023-08-31T13:05:40;2.10;;;1.30;;
74100;SDS011;62462;52.530;21.682;2023-08-31T13:08:07;2.85;;;1.10;;
74100;SDS011;62462;52.530;21.682;2023-08-31T13:10:34;3.53;;;1.40;;
74100;SDS011;62462;52.530;21.682;2023-08-31T13:13:00;2.30;;;1.60;;
74100;SDS011;62462;52.530;21.682;2023-08-31T13:15:25;1.63;;;1.33;;
74100;SDS011;62462;52.530;21.682;2023-08-31T13:17:51;1.85;;;1.30;;
74100;SDS011;62462;52.530;21.682;2023-08-31T13:20:17;3.58;;;1.65;;
74100;SDS011;62462;52.530;21.682;2023-08-31T13:22:43;2.13;;;1.45;;
74100;SDS011;62462;52.530;21.682;2023-08-31T13:25:09;2.83;;;1.50;;
74100;SDS011;62462;52.530;21.682;2023-08-31T13:27:36;3.13;;;1.42;;
74100;SDS011;62462;52.530;21.682;2023-08-31T13:30:02;1.55;;;1.35;;
74100;SDS011;62462;52.530;21.682;2023-08-31T13:32:31;1.80;;;1.40;;
74100;SDS011;62462;52.530;21.682;2023-08-31T13:34:57;2.55;;;1.40;;
74100;SDS011;62462;52.530;21.682;2023-08-31T13:37:23;1.70;;;1.50;;
74100;SDS011;62462;52.530;21.682;2023-08-31T13:39:50;3.58;;;1.58;;
74100;SDS011;62462;52.530;21.682;2023-08-31T13:42:21;2.25;;;1.35;;
74100;SDS011;62462;52.530;21.682;2023-08-31T13:44:47;2.83;;;1.65;;
74100;SDS011;62462;52.530;21.682;2023-08-31T13:47:13;2.97;;;1.70;;
74100;SDS011;62462;52.530;21.682;2023-08-31T13:49:40;2.17;;;1.65;;
74100;SDS011;62462;52.530;21.682;2023-08-31T13:52:05;2.10;;;1.45;;
74100;SDS011;62462;52.530;21.682;2023-08-31T13:54:33;1.52;;;1.40;;
74100;SDS011;62462;52.530;21.682;2023-08-31T13:56:58;3.10;;;1.58;;
74100;SDS011;62462;52.530;21.682;2023-08-31T13:59:24;2.08;;;1.80;;
74100;SDS011;62462;52.530;21.682;2023-08-31T14:01:52;2.22;;;1.50;;
74100;SDS011;62462;52.530;21.682;2023-08-31T14:04:19;1.80;;;1.38;;
74100;SDS011;62462;52.530;21.682;2023-08-31T14:06:44;1.70;;;1.27;;
74100;SDS011;62462;52.530;21.682;2023-08-31T14:09:10;1.85;;;1.42;;
74100;SDS011;62462;52.530;21.682;2023-08-31T14:11:36;1.77;;;1.42;;
74100;SDS011;62462;52.530;21.682;2023-08-31T14:14:05;2.30;;;1.50;;
74100;SDS011;62462;52.530;21.682;2023-08-31T14:16:34;2.22;;;1.30;;
74100;SDS011;62462;52.530;21.682;2023-08-31T14:19:02;2.45;;;1.70;;
74100;SDS011;62462;52.530;21.682;2023-08-31T14:21:29;2.22;;;1.60;;
74100;SDS011;62462;52.530;21.682;2023-08-31T14:23:55;5.40;;;1.70;;
74100;SDS011;62462;52.530;21.682;2023-08-31T14:26:23;4.00;;;1.63;;
74100;SDS011;62462;52.530;21.682;2023-08-31T14:28:53;2.72;;;1.80;;
74100;SDS011;62462;52.530;21.682;2023-08-31T14:31:19;2.88;;;1.92;;
74100;SDS011;62462;52.530;21.682;2023-08-31T14:33:45;1.58;;;1.48;;
74100;SDS011;62462;52.530;21.682;2023-08-31T14:36:12;2.80;;;1.65;;
74100;SDS011;62462;52.530;21.682;2023-08-31T14:38:39;5.35;;;1.90;;
74100;SDS011;62462;52.530;21.682;2023-08-31T14:41:05;2.40;;;1.90;;
74100;SDS011;62462;52.530;21.682;2023-08-31T14:43:32;4.18;;;1.92;;
74100;SDS011;62462;52.530;21.682;2023-08-31T14:45:58;3.63;;;1.70;;
74100;SDS011;62462;52.530;21.682;2023-08-31T14:48:25;3.97;;;1.95;;
74100;SDS011;62462;52.530;21.682;2023-08-31T14:50:52;2.20;;;2.00;;
74100;SDS011;62462;52.530;21.682;2023-08-31T14:53:17;2.78;;;1.80;;
74100;SDS011;62462;52.530;21.682;2023-08-31T14:55:52;2.17;;;1.60;;
74100;SDS011;62462;52.530;21.682;2023-08-31T14:58:18;1.92;;;1.65;;
74100;SDS011;62462;52.530;21.682;2023-08-31T15:00:44;3.10;;;1.60;;
74100;SDS011;62462;52.530;21.682;2023-08-31T15:03:10;2.10;;;1.55;;
74100;SDS011;62462;52.530;21.682;2023-08-31T15:05:36;2.08;;;1.88;;
74100;SDS011;62462;52.530;21.682;2023-08-31T15:08:06;2.88;;;1.83;;
74100;SDS011;62462;52.530;21.682;2023-08-31T15:10:32;5.30;;;2.70;;
74100;SDS011;62462;52.530;21.682;2023-08-31T15:12:58;7.95;;;2.03;;
74100;SDS011;62462;52.530;21.682;2023-08-31T15:15:27;5.18;;;1.65;;
74100;SDS011;62462;52.530;21.682;2023-08-31T15:17:53;6.47;;;2.60;;
74100;SDS011;62462;52.530;21.682;2023-08-31T15:20:20;7.88;;;2.22;;
74100;SDS011;62462;52.530;21.682;2023-08-31T15:22:46;3.40;;;2.00;;
74100;SDS011;62462;52.530;21.682;2023-08-31T15:25:12;3.47;;;1.70;;
74100;SDS011;62462;52.530;21.682;2023-08-31T15:27:38;7.20;;;2.85;;
74100;SDS011;62462;52.530;21.682;2023-08-31T15:30:04;3.38;;;1.63;;
74100;SDS011;62462;52.530;21.682;2023-08-31T15:32:33;4.38;;;1.95;;
74100;SDS011;62462;52.530;21.682;2023-08-31T15:34:58;3.00;;;1.60;;
74100;SDS011;62462;52.530;21.682;2023-08-31T15:37:24;2.10;;;1.70;;
74100;SDS011;62462;52.530;21.682;2023-08-31T15:39:50;4.50;;;2.10;;
74100;SDS011;62462;52.530;21.682;2023-08-31T15:42:16;3.15;;;1.50;;
74100;SDS011;62462;52.530;21.682;2023-08-31T15:44:42;4.22;;;1.30;;
74100;SDS011;62462;52.530;21.682;2023-08-31T15:47:08;3.03;;;1.50;;
74100;SDS011;62462;52.530;21.682;2023-08-31T15:49:34;4.88;;;1.65;;
74100;SDS011;62462;52.530;21.682;2023-08-31T15:52:00;3.33;;;1.60;;
74100;SDS011;62462;52.530;21.682;2023-08-31T15:54:28;5.32;;;1.70;;
74100;SDS011;62462;52.530;21.682;2023-08-31T15:56:54;3.55;;;1.40;;
74100;SDS011;62462;52.530;21.682;2023-08-31T15:59:20;4.68;;;1.75;;
74100;SDS011;62462;52.530;21.682;2023-08-31T16:01:46;4.22;;;2.35;;
74100;SDS011;62462;52.530;21.682;2023-08-31T16:04:12;8.20;;;3.53;;
74100;SDS011;62462;52.530;21.682;2023-08-31T16:06:38;9.18;;;5.25;;
74100;SDS011;62462;52.530;21.682;2023-08-31T16:09:04;10.13;;;3.67;;
74100;SDS011;62462;52.530;21.682;2023-08-31T16:11:30;7.10;;;2.67;;
74100;SDS011;62462;52.530;21.682;2023-08-31T16:13:57;5.28;;;1.90;;
74100;SDS011;62462;52.530;21.682;2023-08-31T16:16:23;4.43;;;2.00;;
74100;SDS011;62462;52.530;21.682;2023-08-31T16:18:49;3.53;;;2.10;;
74100;SDS011;62462;52.530;21.682;2023-08-31T16:21:15;4.45;;;2.20;;
74100;SDS011;62462;52.530;21.682;2023-08-31T16:23:41;3.35;;;2.03;;
74100;SDS011;62462;52.530;21.682;2023-08-31T16:26:07;6.50;;;2.10;;
74100;SDS011;62462;52.530;21.682;2023-08-31T16:28:33;3.55;;;2.33;;
74100;SDS011;62462;52.530;21.682;2023-08-31T16:31:00;3.08;;;2.17;;
74100;SDS011;62462;52.530;21.682;2023-08-31T16:33:26;4.03;;;2.70;;
74100;SDS011;62462;52.530;21.682;2023-08-31T16:35:58;4.03;;;2.65;;
74100;SDS011;62462;52.530;21.682;2023-08-31T16:38:30;4.55;;;3.20;;
74100;SDS011;62462;52.530;21.682;2023-08-31T16:40:56;3.60;;;2.80;;
74100;SDS011;62462;52.530;21.682;2023-08-31T16:43:22;6.78;;;3.90;;
74100;SDS011;62462;52.530;21.682;2023-08-31T16:45:52;7.78;;;4.60;;
74100;SDS011;62462;52.530;21.682;2023-08-31T16:48:18;9.00;;;4.65;;
74100;SDS011;62462;52.530;21.682;2023-08-31T16:50:44;8.63;;;4.13;;
74100;SDS011;62462;52.530;21.682;2023-08-31T16:53:09;10.77;;;5.32;;
74100;SDS011;62462;52.530;21.682;2023-08-31T16:55:38;16.45;;;8.15;;
74100;SDS011;62462;52.530;21.682;2023-08-31T16:58:04;16.65;;;7.53;;
74100;SDS011;62462;52.530;21.682;2023-08-31T17:00:30;17.08;;;7.55;;
74100;SDS011;62462;52.530;21.682;2023-08-31T17:02:55;12.50;;;7.38;;
74100;SDS011;62462;52.530;21.682;2023-08-31T17:05:21;11.30;;;6.65;;
74100;SDS011;62462;52.530;21.682;2023-08-31T17:07:47;10.75;;;5.78;;
74100;SDS011;62462;52.530;21.682;2023-08-31T17:10:13;7.20;;;5.57;;
74100;SDS011;62462;52.530;21.682;2023-08-31T17:12:38;6.85;;;3.90;;
74100;SDS011;62462;52.530;21.682;2023-08-31T17:15:05;8.98;;;4.78;;
74100;SDS011;62462;52.530;21.682;2023-08-31T17:17:33;7.55;;;4.57;;
74100;SDS011;62462;52.530;21.682;2023-08-31T17:19:58;6.93;;;4.03;;
74100;SDS011;62462;52.530;21.682;2023-08-31T17:22:25;5.38;;;3.83;;
74100;SDS011;62462;52.530;21.682;2023-08-31T17:24:52;5.28;;;3.65;;
74100;SDS011;62462;52.530;21.682;2023-08-31T17:27:21;8.60;;;5.43;;
74100;SDS011;62462;52.530;21.682;2023-08-31T17:29:46;3.85;;;3.30;;
74100;SDS011;62462;52.530;21.682;2023-08-31T17:32:13;4.15;;;3.38;;
74100;SDS011;62462;52.530;21.682;2023-08-31T17:34:39;4.85;;;3.17;;
74100;SDS011;62462;52.530;21.682;2023-08-31T17:37:05;4.15;;;3.20;;
74100;SDS011;62462;52.530;21.682;2023-08-31T17:39:30;3.50;;;2.83;;
74100;SDS011;62462;52.530;21.682;2023-08-31T17:41:56;4.32;;;3.38;;
74100;SDS011;62462;52.530;21.682;2023-08-31T17:44:22;6.18;;;3.33;;
74100;SDS011;62462;52.530;21.682;2023-08-31T17:46:50;5.18;;;3.25;;
74100;SDS011;62462;52.530;21.682;2023-08-31T17:49:16;5.50;;;3.33;;
74100;SDS011;62462;52.530;21.682;2023-08-31T17:51:42;8.85;;;3.90;;
74100;SDS011;62462;52.530;21.682;2023-08-31T17:54:10;7.88;;;3.83;;
74100;SDS011;62462;52.530;21.682;2023-08-31T17:56:36;5.80;;;4.30;;
74100;SDS011;62462;52.530;21.682;2023-08-31T17:59:01;4.60;;;3.65;;
74100;SDS011;62462;52.530;21.682;2023-08-31T18:01:29;4.10;;;3.70;;
74100;SDS011;62462;52.530;21.682;2023-08-31T18:03:55;7.90;;;4.38;;
74100;SDS011;62462;52.530;21.682;2023-08-31T18:06:20;6.25;;;4.50;;
74100;SDS011;62462;52.530;21.682;2023-08-31T18:08:46;4.90;;;3.92;;
74100;SDS011;62462;52.530;21.682;2023-08-31T18:11:12;6.40;;;4.57;;
74100;SDS011;62462;52.530;21.682;2023-08-31T18:13:38;5.68;;;4.55;;
74100;SDS011;62462;52.530;21.682;2023-08-31T18:16:04;6.38;;;4.53;;
74100;SDS011;62462;52.530;21.682;2023-08-31T18:18:30;7.60;;;4.70;;
74100;SDS011;62462;52.530;21.682;2023-08-31T18:20:56;6.68;;;4.63;;
74100;SDS011;62462;52.530;21.682;2023-08-31T18:23:28;7.43;;;5.00;;
74100;SDS011;62462;52.530;21.682;2023-08-31T18:25:55;9.10;;;5.30;;
74100;SDS011;62462;52.530;21.682;2023-08-31T18:28:21;6.05;;;4.68;;
74100;SDS011;62462;52.530;21.682;2023-08-31T18:30:53;5.95;;;4.93;;
74100;SDS011;62462;52.530;21.682;2023-08-31T18:33:23;6.65;;;5.35;;
74100;SDS011;62462;52.530;21.682;2023-08-31T18:35:53;5.20;;;4.10;;
74100;SDS011;62462;52.530;21.682;2023-08-31T18:38:20;5.57;;;4.90;;
74100;SDS011;62462;52.530;21.682;2023-08-31T18:40:51;6.65;;;4.32;;
74100;SDS011;62462;52.530;21.682;2023-08-31T18:43:18;6.57;;;4.70;;
74100;SDS011;62462;52.530;21.682;2023-08-31T18:45:46;5.85;;;4.57;;
74100;SDS011;62462;52.530;21.682;2023-08-31T18:48:12;12.00;;;5.43;;
74100;SDS011;62462;52.530;21.682;2023-08-31T18:50:39;6.20;;;4.80;;
74100;SDS011;62462;52.530;21.682;2023-08-31T18:53:05;5.70;;;5.10;;
74100;SDS011;62462;52.530;21.682;2023-08-31T18:55:34;6.70;;;5.20;;
74100;SDS011;62462;52.530;21.682;2023-08-31T18:58:01;8.30;;;5.38;;
74100;SDS011;62462;52.530;21.682;2023-08-31T19:00:27;8.52;;;5.00;;
74100;SDS011;62462;52.530;21.682;2023-08-31T19:02:53;5.93;;;5.32;;
74100;SDS011;62462;52.530;21.682;2023-08-31T19:05:19;6.75;;;5.55;;
74100;SDS011;62462;52.530;21.682;2023-08-31T19:07:45;5.05;;;4.55;;
74100;SDS011;62462;52.530;21.682;2023-08-31T19:10:11;8.98;;;5.00;;
74100;SDS011;62462;52.530;21.682;2023-08-31T19:12:39;7.38;;;4.95;;
74100;SDS011;62462;52.530;21.682;2023-08-31T19:15:07;7.60;;;4.97;;
74100;SDS011;62462;52.530;21.682;2023-08-31T19:17:33;7.03;;;5.60;;
74100;SDS011;62462;52.530;21.682;2023-08-31T19:19:59;6.68;;;5.55;;
74100;SDS011;62462;52.530;21.682;2023-08-31T19:22:25;7.95;;;5.75;;
74100;SDS011;62462;52.530;21.682;2023-08-31T19:24:52;8.45;;;6.00;;
74100;SDS011;62462;52.530;21.682;2023-08-31T19:27:17;7.18;;;5.68;;
74100;SDS011;62462;52.530;21.682;2023-08-31T19:29:44;7.45;;;5.68;;
74100;SDS011;62462;52.530;21.682;2023-08-31T19:32:10;8.63;;;6.05;;
74100;SDS011;62462;52.530;21.682;2023-08-31T19:34:35;7.63;;;5.93;;
74100;SDS011;62462;52.530;21.682;2023-08-31T19:37:03;6.40;;;5.57;;
74100;SDS011;62462;52.530;21.682;2023-08-31T19:39:29;7.43;;;6.13;;
74100;SDS011;62462;52.530;21.682;2023-08-31T19:41:57;8.20;;;5.40;;
74100;SDS011;62462;52.530;21.682;2023-08-31T19:44:23;7.13;;;6.03;;
74100;SDS011;62462;52.530;21.682;2023-08-31T19:46:50;5.90;;;5.28;;
74100;SDS011;62462;52.530;21.682;2023-08-31T19:49:16;5.30;;;4.75;;
74100;SDS011;62462;52.530;21.682;2023-08-31T19:51:42;6.18;;;5.20;;
74100;SDS011;62462;52.530;21.682;2023-08-31T19:54:07;6.07;;;4.57;;
74100;SDS011;62462;52.530;21.682;2023-08-31T19:56:35;5.93;;;4.72;;
74100;SDS011;62462;52.530;21.682;2023-08-31T19:59:04;6.00;;;5.32;;
74100;SDS011;62462;52.530;21.682;2023-08-31T20:01:32;5.68;;;5.03;;
74100;SDS011;62462;52.530;21.682;2023-08-31T20:03:59;6.70;;;5.90;;
74100;SDS011;62462;52.530;21.682;2023-08-31T20:06:25;7.15;;;5.85;;
74100;SDS011;62462;52.530;21.682;2023-08-31T20:08:51;7.30;;;4.22;;
74100;SDS011;62462;52.530;21.682;2023-08-31T20:11:16;5.70;;;5.03;;
74100;SDS011;62462;52.530;21.682;2023-08-31T20:13:42;6.43;;;5.55;;
74100;SDS011;62462;52.530;21.682;2023-08-31T20:16:08;7.05;;;6.35;;
74100;SDS011;62462;52.530;21.682;2023-08-31T20:18:34;8.77;;;6.18;;
74100;SDS011;62462;52.530;21.682;2023-08-31T20:21:00;6.80;;;6.07;;
74100;SDS011;62462;52.530;21.682;2023-08-31T20:23:26;7.60;;;5.40;;
74100;SDS011;62462;52.530;21.682;2023-08-31T20:25:52;6.45;;;5.30;;
74100;SDS011;62462;52.530;21.682;2023-08-31T20:28:21;9.60;;;6.75;;
74100;SDS011;62462;52.530;21.682;2023-08-31T20:30:47;6.65;;;5.72;;
74100;SDS011;62462;52.530;21.682;2023-08-31T20:33:14;7.30;;;6.38;;
74100;SDS011;62462;52.530;21.682;2023-08-31T20:35:40;9.82;;;6.35;;
74100;SDS011;62462;52.530;21.682;2023-08-31T20:38:06;8.60;;;6.15;;
74100;SDS011;62462;52.530;21.682;2023-08-31T20:40:38;7.45;;;5.30;;
74100;SDS011;62462;52.530;21.682;2023-08-31T20:43:04;8.85;;;6.35;;
74100;SDS011;62462;52.530;21.682;2023-08-31T20:45:31;6.70;;;6.07;;
74100;SDS011;62462;52.530;21.682;2023-08-31T20:47:57;8.68;;;5.63;;
74100;SDS011;62462;52.530;21.682;2023-08-31T20:50:27;6.22;;;5.22;;
74100;SDS011;62462;52.530;21.682;2023-08-31T20:52:53;8.38;;;5.53;;
74100;SDS011;62462;52.530;21.682;2023-08-31T20:55:19;5.80;;;5.30;;
74100;SDS011;62462;52.530;21.682;2023-08-31T20:57:47;9.23;;;4.95;;
74100;SDS011;62462;52.530;21.682;2023-08-31T21:00:12;6.07;;;5.13;;
74100;SDS011;62462;52.530;21.682;2023-08-31T21:02:39;6.55;;;5.78;;
74100;SDS011;62462;52.530;21.682;2023-08-31T21:05:05;7.82;;;5.60;;
74100;SDS011;62462;52.530;21.682;2023-08-31T21:07:30;9.35;;;5.60;;
74100;SDS011;62462;52.530;21.682;2023-08-31T21:09:56;7.00;;;5.15;;
74100;SDS011;62462;52.530;21.682;2023-08-31T21:12:23;8.07;;;5.78;;
74100;SDS011;62462;52.530;21.682;2023-08-31T21:14:48;6.00;;;5.40;;
74100;SDS011;62462;52.530;21.682;2023-08-31T21:17:14;6.70;;;5.10;;
74100;SDS011;62462;52.530;21.682;2023-08-31T21:19:40;5.80;;;5.00;;
74100;SDS011;62462;52.530;21.682;2023-08-31T21:22:06;5.40;;;4.88;;
74100;SDS011;62462;52.530;21.682;2023-08-31T21:24:31;7.53;;;4.93;;
74100;SDS011;62462;52.530;21.682;2023-08-31T21:26:57;5.97;;;5.40;;
74100;SDS011;62462;52.530;21.682;2023-08-31T21:29:23;6.90;;;5.25;;
74100;SDS011;62462;52.530;21.682;2023-08-31T21:31:48;5.20;;;4.72;;
74100;SDS011;62462;52.530;21.682;2023-08-31T21:34:14;6.68;;;4.78;;
74100;SDS011;62462;52.530;21.682;2023-08-31T21:36:40;8.85;;;5.10;;
74100;SDS011;62462;52.530;21.682;2023-08-31T21:39:05;5.72;;;5.13;;
74100;SDS011;62462;52.530;21.682;2023-08-31T21:41:31;7.97;;;5.88;;
74100;SDS011;62462;52.530;21.682;2023-08-31T21:43:57;7.32;;;5.50;;
74100;SDS011;62462;52.530;21.682;2023-08-31T21:46:23;14.00;;;6.95;;
74100;SDS011;62462;52.530;21.682;2023-08-31T21:48:49;6.18;;;5.10;;
74100;SDS011;62462;52.530;21.682;2023-08-31T21:51:17;7.28;;;5.15;;
74100;SDS011;62462;52.530;21.682;2023-08-31T21:53:43;6.00;;;5.15;;
74100;SDS011;62462;52.530;21.682;2023-08-31T21:56:09;8.32;;;5.28;;
74100;SDS011;62462;52.530;21.682;2023-08-31T21:58:36;5.60;;;5.10;;
74100;SDS011;62462;52.530;21.682;2023-08-31T22:01:02;6.15;;;5.30;;
74100;SDS011;62462;52.530;21.682;2023-08-31T22:03:28;6.43;;;5.55;;
74100;SDS011;62462;52.530;21.682;2023-08-31T22:05:55;5.80;;;5.00;;
74100;SDS011;62462;52.530;21.682;2023-08-31T22:08:25;12.90;;;5.32;;
74100;SDS011;62462;52.530;21.682;2023-08-31T22:10:51;6.50;;;4.60;;
74100;SDS011;62462;52.530;21.682;2023-08-31T22:13:17;5.00;;;4.50;;
74100;SDS011;62462;52.530;21.682;2023-08-31T22:15:43;9.13;;;4.50;;
74100;SDS011;62462;52.530;21.682;2023-08-31T22:18:10;5.57;;;4.90;;
74100;SDS011;62462;52.530;21.682;2023-08-31T22:20:36;6.93;;;5.20;;
74100;SDS011;62462;52.530;21.682;2023-08-31T22:23:02;7.50;;;4.72;;
74100;SDS011;62462;52.530;21.682;2023-08-31T22:25:30;5.35;;;4.55;;
74100;SDS011;62462;52.530;21.682;2023-08-31T22:27:57;6.57;;;5.05;;
74100;SDS011;62462;52.530;21.682;2023-08-31T22:30:23;10.43;;;5.28;;
74100;SDS011;62462;52.530;21.682;2023-08-31T22:32:50;7.13;;;4.82;;
74100;SDS011;62462;52.530;21.682;2023-08-31T22:35:16;7.50;;;5.95;;
74100;SDS011;62462;52.530;21.682;2023-08-31T22:37:42;9.25;;;5.63;;
74100;SDS011;62462;52.530;21.682;2023-08-31T22:40:08;8.70;;;5.38;;
74100;SDS011;62462;52.530;21.682;2023-08-31T22:42:35;6.25;;;5.20;;
74100;SDS011;62462;52.530;21.682;2023-08-31T22:45:02;7.05;;;5.57;;
74100;SDS011;62462;52.530;21.682;2023-08-31T22:47:30;7.88;;;5.80;;
74100;SDS011;62462;52.530;21.682;2023-08-31T22:49:57;5.82;;;4.90;;
74100;SDS011;62462;52.530;21.682;2023-08-31T22:52:23;8.10;;;5.13;;
74100;SDS011;62462;52.530;21.682;2023-08-31T22:54:53;6.45;;;5.30;;
74100;SDS011;62462;52.530;21.682;2023-08-31T22:57:19;10.07;;;5.95;;
74100;SDS011;62462;52.530;21.682;2023-08-31T22:59:45;7.65;;;5.55;;
74100;SDS011;62462;52.530;21.682;2023-08-31T23:02:11;7.85;;;5.55;;
74100;SDS011;62462;52.530;21.682;2023-08-31T23:04:37;9.50;;;5.43;;
74100;SDS011;62462;52.530;21.682;2023-08-31T23:07:02;8.52;;;5.00;;
74100;SDS011;62462;52.530;21.682;2023-08-31T23:09:29;7.68;;;5.50;;
74100;SDS011;62462;52.530;21.682;2023-08-31T23:11:57;5.50;;;4.47;;
74100;SDS011;62462;52.530;21.682;2023-08-31T23:14:25;4.35;;;3.95;;
74100;SDS011;62462;52.530;21.682;2023-08-31T23:16:52;5.68;;;4.97;;
74100;SDS011;62462;52.530;21.682;2023-08-31T23:19:17;8.65;;;5.10;;
74100;SDS011;62462;52.530;21.682;2023-08-31T23:21:43;7.13;;;5.30;;
74100;SDS011;62462;52.530;21.682;2023-08-31T23:24:10;6.63;;;4.80;;
74100;SDS011;62462;52.530;21.682;2023-08-31T23:26:36;6.35;;;5.35;;
74100;SDS011;62462;52.530;21.682;2023-08-31T23:29:02;4.80;;;4.30;;
74100;SDS011;62462;52.530;21.682;2023-08-31T23:31:28;5.25;;;4.75;;
74100;SDS011;62462;52.530;21.682;2023-08-31T23:33:54;6.60;;;4.60;;
74100;SDS011;62462;52.530;21.682;2023-08-31T23:36:20;7.80;;;5.10;;
74100;SDS011;62462;52.530;21.682;2023-08-31T23:38:46;5.68;;;5.10;;
74100;SDS011;62462;52.530;21.682;2023-08-31T23:41:12;6.15;;;5.00;;
74100;SDS011;62462;52.530;21.682;2023-08-31T23:43:38;9.57;;;4.93;;
74100;SDS011;62462;52.530;21.682;2023-08-31T23:46:03;7.25;;;5.53;;
74100;SDS011;62462;52.530;21.682;2023-08-31T23:48:29;7.25;;;5.25;;
74100;SDS011;62462;52.530;21.682;2023-08-31T23:50:55;5.50;;;4.88;;
74100;SDS011;62462;52.530;21.682;2023-08-31T23:53:20;5.25;;;4.68;;
74100;SDS011;62462;52.530;21.682;2023-08-31T23:55:46;6.47;;;4.72;;
74100;SDS011;62462;52.530;21.682;2023-08-31T23:58:14;8.82;;;5.43;;
